Share

Benkelman, NE

7:39 AM MDT on April 23, 2014 (GMT -0600)
KHMYKSBI2 Elev 3524 ft | 39.76 °N, 101.60 °W | Change Station
Active Advisory: Blowing Dust Advisory Active Notice: Public Information Statement

Current weather conditions updated 9 seconds ago

Clear
Clear
65.3 °F
Feels Like 65.3 °F
N
25.0
Wind Variable Wind from SW
Gusts 34.0 mph
Sunrise 5:56 AM
Sunset 7:32 PM
Moon Last Quarter

Today is forecast to be Warmer than yesterday.

Pressure 29.54 in
Visibility 10.0 miles
Clouds Clear
Dew Point 46 °F
Humidity 50%
Rainfall 0.00 in
Snow Depth Not available.
UV 0.0 out of 16
Pollen 11.50 out of 12
Air Quality Not available.
Flu Activity Sporadic
METAR KSYF 231315Z AUTO 21024G31KT 10SM CLR 19/04 A2954 RMK AO2 T01860040

More Conditions Fewer Conditions

Pressure 29.54 in
Visibility 10.0 miles
Clouds Clear
Dew Point 46 °F
Humidity 50%
Rainfall 0.00 in
Snow Depth Not available.
UV 0.0 out of 16
Pollen 11.50 out of 12
Air Quality Not available.
Flu Activity Sporadic
METAR KSYF 231315Z AUTO 21024G31KT 10SM CLR 19/04 A2954 RMK AO2 T01860040

More Conditions Fewer Conditions

10-Day Weather Forecast

Almanac

Astronomy

Apr. 23, 2014 Rise Set
Actual Time 5:56 AM MDT 7:32 PM MDT
Civil Twilight 5:27 AM MDT 8:01 PM MDT
Nautical Twilight 4:53 AM MDT 8:36 PM MDT
Astronomical Twilight 4:16 AM MDT 9:13 PM MDT
Moon 2:29 AM MDT 1:43 PM MDT
Length of Visible Light 14h 33m
Length of Day
13h 36m
Tomorrow will be 2m 24s longer.
Last Quarter, 36% of the Moon is Illuminated
Today
Last Quarter
Apr 29
New
May 6
First Quarter
May 14
Full
May 21
Last Quarter

Today's Extremes

State Highs State Lows

Community

  • spring flowers
    spring flowers
  • Earth Day Spectrum Ove' Blue
    Earth Day Spectrum Ove' Blue
  • BARN B&W
    BARN B&W
  • April Sunset
    April Sunset
  • Waiting..
    Waiting..

WunderPhotos

Upload Photos

1,704,277 photos uploaded!

Nearby

Snow Depth

Station Depth Elevation
No new snow has been reported.

Coastal Water Temperatures

Place Temperature
No Stations Reporting

Earthquake Activity

City Distance Mag. Time & Date
No recent earthquake activity has been reported nearby.
Minimum magnitude displayed is 2.5.

Nearby Weather Stations

Station Location Temp. Dew Point Humidity Wind Precip. Elev Updated Type
Bird City, KS 65.3 °F 46 °F 50% SW  at  25.0 mph 0.00 in / hr 3524 ft 8:39 AM CDT Rapid Fire
MesoWest JOHNSON FARM , Champion, NE 58 °F 44 °F 59% South  at  12 mph 0.00 in / hr 3340 ft 6:00 AM MDT MADIS
South Center on Hwy 36, St Francis, KS 68.5 °F 46 °F 44% NE  at  6.0 mph 0.00 in / hr 3350 ft 8:35 AM CDT Normal

Show More Stations Show Fewer Stations

What do you think?

We're not finished. Please let us know what you like, what you don't like, and what you are still missing.